createdAt,value
2018-02-11T00:01:00.978Z,72.00
2018-02-11T00:03:28.554Z,71.90
2018-02-11T00:05:56.126Z,71.40
2018-02-11T00:08:23.689Z,71.90
2018-02-11T00:10:51.370Z,72.00
2018-02-11T00:13:19.681Z,72.00
2018-02-11T00:15:47.302Z,72.00
2018-02-11T00:18:14.853Z,71.60
2018-02-11T00:20:43.212Z,71.90
2018-02-11T00:23:10.762Z,72.70
2018-02-11T00:25:38.351Z,72.40
2018-02-11T00:28:05.920Z,72.40
2018-02-11T00:30:34.397Z,72.50
2018-02-11T00:33:01.974Z,72.40
2018-02-11T00:35:30.288Z,74.10
2018-02-11T00:38:03.626Z,74.00
2018-02-11T00:40:31.203Z,76.60
2018-02-11T00:42:59.558Z,80.50
2018-02-11T00:45:27.148Z,79.70
2018-02-11T00:47:55.478Z,82.80
2018-02-11T00:50:23.169Z,82.90
2018-02-11T00:52:50.728Z,84.60
2018-02-11T00:55:18.289Z,86.20
2018-02-11T00:57:45.850Z,87.50
2018-02-11T01:00:13.455Z,88.40
2018-02-11T01:02:42.165Z,89.90
2018-02-11T01:05:09.722Z,89.90
2018-02-11T01:07:37.368Z,90.10
2018-02-11T01:10:04.913Z,90.30
2018-02-11T01:12:33.350Z,90.90
2018-02-11T01:15:00.912Z,90.80
2018-02-11T01:17:28.509Z,91.00
2018-02-11T01:19:56.077Z,91.10
2018-02-11T01:22:24.400Z,91.40
2018-02-11T01:24:51.953Z,91.30
2018-02-11T01:27:19.508Z,91.40
2018-02-11T01:29:47.097Z,91.50
2018-02-11T01:32:14.678Z,91.40
2018-02-11T01:34:42.253Z,91.30
2018-02-11T01:37:09.829Z,91.40
2018-02-11T01:39:38.281Z,91.50
2018-02-11T01:42:05.834Z,91.50
2018-02-11T01:44:33.401Z,91.40
2018-02-11T01:47:00.957Z,91.50
2018-02-11T01:49:29.322Z,91.60
2018-02-11T01:51:56.912Z,91.70
2018-02-11T01:54:24.491Z,91.70
2018-02-11T01:56:52.928Z,91.90
2018-02-11T01:59:20.473Z,91.90
2018-02-11T02:01:48.036Z,92.10
2018-02-11T02:04:15.606Z,92.20
2018-02-11T02:06:43.285Z,92.30
2018-02-11T02:09:11.750Z,92.60
2018-02-11T02:11:39.359Z,92.60
2018-02-11T02:14:07.688Z,93.00
2018-02-11T02:16:35.242Z,92.60
2018-02-11T02:19:03.598Z,92.80
2018-02-11T02:21:31.181Z,92.80
2018-02-11T02:23:58.754Z,92.90
2018-02-11T02:26:26.401Z,93.00
2018-02-11T02:28:54.434Z,93.00
2018-02-11T02:31:22.765Z,93.00
2018-02-11T02:33:50.320Z,93.00
2018-02-11T02:36:17.876Z,93.10
2018-02-11T02:38:45.432Z,93.10
2018-02-11T02:41:12.977Z,93.00
2018-02-11T02:43:40.621Z,93.10
2018-02-11T02:46:09.143Z,92.90
2018-02-11T02:48:36.717Z,92.90
2018-02-11T02:51:04.276Z,92.90
2018-02-11T02:53:31.877Z,92.80
2018-02-11T02:56:00.357Z,92.80
2018-02-11T02:58:28.681Z,92.60
2018-02-11T03:00:56.229Z,92.60
2018-02-11T03:03:23.773Z,92.60
2018-02-11T03:05:51.369Z,92.50
2018-02-11T03:08:18.953Z,92.50
2018-02-11T03:10:46.492Z,92.40
2018-02-11T03:13:14.066Z,92.40
2018-02-11T03:15:41.773Z,92.40
2018-02-11T03:18:10.093Z,92.60
2018-02-11T03:20:37.668Z,92.60
2018-02-11T03:23:05.229Z,92.60
2018-02-11T03:25:33.694Z,92.50
2018-02-11T03:28:01.257Z,92.40
2018-02-11T03:30:28.817Z,92.30
2018-02-11T03:32:56.365Z,92.40
2018-02-11T03:35:23.954Z,92.30
2018-02-11T03:37:51.526Z,92.30
2018-02-11T03:40:19.106Z,92.20
2018-02-11T03:42:47.559Z,92.10
2018-02-11T03:45:15.219Z,92.10
2018-02-11T03:47:42.926Z,91.90
2018-02-11T03:50:11.265Z,92.00
2018-02-11T03:52:38.880Z,92.00
2018-02-11T03:55:07.210Z,91.80
2018-02-11T03:57:34.768Z,91.80
2018-02-11T04:00:02.327Z,92.10
2018-02-11T04:02:29.898Z,92.30
2018-02-11T04:04:57.445Z,92.40
2018-02-11T04:07:25.054Z,92.40
2018-02-11T04:09:53.408Z,92.50
2018-02-11T04:12:20.996Z,92.50
2018-02-11T04:14:49.310Z,92.50
2018-02-11T04:17:17.026Z,92.50
2018-02-11T04:19:44.702Z,92.40
2018-02-11T04:22:12.270Z,92.50
2018-02-11T04:24:40.686Z,92.80
2018-02-11T04:27:08.241Z,92.80
2018-02-11T04:29:35.846Z,92.90
2018-02-11T04:32:03.368Z,92.80
2018-02-11T04:34:30.948Z,92.70
2018-02-11T04:36:58.598Z,92.70
2018-02-11T04:39:26.177Z,92.80
2018-02-11T04:41:53.748Z,92.70
2018-02-11T04:44:21.368Z,92.80
2018-02-11T04:46:48.964Z,92.80
2018-02-11T04:49:16.517Z,92.80
2018-02-11T04:51:44.127Z,92.80
2018-02-11T04:54:12.429Z,92.70
2018-02-11T04:56:40.012Z,92.70
2018-02-11T04:59:08.348Z,92.70
2018-02-11T05:01:36.752Z,92.80
2018-02-11T05:04:04.674Z,92.80
2018-02-11T05:06:32.213Z,92.70
2018-02-11T05:08:59.810Z,92.70
2018-02-11T05:11:28.270Z,92.70
2018-02-11T05:13:55.817Z,92.70
2018-02-11T05:16:24.177Z,92.60
2018-02-11T05:18:51.734Z,92.60
2018-02-11T05:21:19.304Z,92.70
2018-02-11T05:23:46.847Z,92.70
2018-02-11T05:26:14.446Z,92.80
2018-02-11T05:28:42.006Z,93.00
2018-02-11T05:31:09.567Z,93.00
2018-02-11T05:33:37.132Z,92.90
2018-02-11T05:36:04.677Z,92.90
2018-02-11T05:38:32.237Z,92.90
2018-02-11T05:40:59.797Z,92.40
2018-02-11T05:43:27.342Z,92.40
2018-02-11T05:45:54.921Z,92.10
2018-02-11T05:48:22.568Z,92.10
2018-02-11T05:50:50.121Z,91.70
2018-02-11T05:53:17.684Z,91.50
2018-02-11T05:55:46.282Z,91.40
2018-02-11T05:58:13.867Z,91.30
2018-02-11T06:00:41.429Z,91.40
2018-02-11T06:03:08.989Z,91.50
2018-02-11T06:05:36.540Z,91.40
2018-02-11T06:08:04.093Z,91.10
2018-02-11T06:10:31.692Z,91.00
2018-02-11T06:12:59.237Z,91.20
2018-02-11T06:15:26.810Z,90.90
2018-02-11T06:17:54.377Z,91.30
2018-02-11T06:20:21.945Z,91.30
2018-02-11T06:22:50.293Z,91.90
2018-02-11T06:25:17.854Z,91.50
2018-02-11T06:27:45.402Z,91.50
2018-02-11T06:30:12.948Z,91.40
2018-02-11T06:32:40.508Z,91.30
2018-02-11T06:35:08.064Z,91.40
2018-02-11T06:37:35.656Z,91.20
2018-02-11T06:40:03.244Z,91.20
2018-02-11T06:42:30.825Z,90.70
2018-02-11T06:44:58.412Z,90.40
2018-02-11T06:47:26.033Z,90.70
2018-02-11T06:49:54.354Z,90.20
2018-02-11T06:52:21.910Z,89.80
2018-02-11T06:54:49.489Z,89.50
2018-02-11T06:57:17.066Z,89.00
2018-02-11T06:59:44.647Z,89.20
2018-02-11T07:02:12.201Z,90.10
2018-02-11T07:04:39.754Z,88.90
2018-02-11T07:07:07.311Z,88.80
2018-02-11T07:09:34.894Z,89.00
2018-02-11T07:12:02.486Z,88.30
2018-02-11T07:14:30.795Z,87.50
2018-02-11T07:16:58.360Z,87.40
2018-02-11T07:19:26.159Z,87.40
2018-02-11T07:21:53.747Z,86.50
2018-02-11T07:24:21.301Z,87.70
2018-02-11T07:26:49.628Z,87.20
2018-02-11T07:29:17.353Z,87.00
2018-02-11T07:31:45.097Z,86.20
2018-02-11T07:34:12.666Z,86.50
2018-02-11T07:36:40.990Z,85.80
2018-02-11T07:39:08.549Z,86.50
2018-02-11T07:41:36.149Z,85.90
2018-02-11T07:44:03.696Z,86.00
2018-02-11T07:46:32.180Z,86.40
2018-02-11T07:48:59.820Z,86.50
2018-02-11T07:51:28.026Z,86.00
2018-02-11T07:53:55.594Z,85.70
2018-02-11T07:56:23.994Z,85.60
2018-02-11T07:58:52.341Z,85.90
2018-02-11T08:01:19.912Z,85.90
2018-02-11T08:03:47.492Z,86.70
2018-02-11T08:06:16.009Z,86.00
2018-02-11T08:08:43.556Z,86.00
2018-02-11T08:11:11.125Z,86.80
2018-02-11T08:13:38.691Z,88.00
2018-02-11T08:16:06.252Z,87.90
2018-02-11T08:18:33.813Z,89.20
2018-02-11T08:21:01.375Z,88.30
2018-02-11T08:23:28.971Z,88.30
2018-02-11T08:25:57.298Z,88.00
2018-02-11T08:28:24.898Z,88.00
2018-02-11T08:30:52.612Z,88.10
2018-02-11T08:33:20.154Z,88.30
2018-02-11T08:35:47.898Z,87.00
2018-02-11T08:38:15.466Z,87.90
2018-02-11T08:40:43.789Z,90.00
2018-02-11T08:43:11.360Z,90.00
2018-02-11T08:45:38.932Z,89.70
2018-02-11T08:48:06.478Z,90.50
2018-02-11T08:50:34.034Z,90.50
2018-02-11T08:53:01.601Z,90.80
2018-02-11T08:55:29.185Z,90.90
2018-02-11T08:57:57.013Z,90.90
2018-02-11T09:00:24.574Z,90.90
2018-02-11T09:02:52.141Z,91.00
2018-02-11T09:05:19.701Z,91.00
2018-02-11T09:07:47.264Z,90.90
2018-02-11T09:10:14.835Z,91.20
2018-02-11T09:12:42.383Z,91.00
2018-02-11T09:15:10.081Z,91.10
2018-02-11T09:17:37.677Z,91.40
2018-02-11T09:20:05.273Z,91.30
2018-02-11T09:22:32.855Z,91.70
2018-02-11T09:25:00.449Z,91.50
2018-02-11T09:27:28.012Z,91.20
2018-02-11T09:29:55.550Z,91.10
2018-02-11T09:32:23.127Z,91.10
2018-02-11T09:34:50.687Z,90.90
2018-02-11T09:37:19.031Z,90.70
2018-02-11T09:39:46.589Z,90.70
2018-02-11T09:42:14.169Z,90.70
2018-02-11T09:44:41.904Z,90.50
2018-02-11T09:47:09.496Z,90.90
2018-02-11T09:49:37.132Z,90.30
2018-02-11T09:52:04.709Z,90.50
2018-02-11T09:54:32.257Z,90.50
2018-02-11T09:56:59.828Z,90.50
2018-02-11T09:59:27.424Z,90.40
2018-02-11T10:01:55.052Z,90.40
2018-02-11T10:04:22.641Z,90.40
2018-02-11T10:06:50.230Z,90.20
2018-02-11T10:09:18.577Z,90.10
2018-02-11T10:11:46.170Z,90.10
2018-02-11T10:14:14.532Z,89.10
2018-02-11T10:16:42.235Z,89.00
2018-02-11T10:19:09.805Z,88.70
2018-02-11T10:21:37.572Z,89.30
2018-02-11T10:24:05.201Z,89.60
2018-02-11T10:26:32.765Z,89.50
2018-02-11T10:29:01.174Z,90.00
2018-02-11T10:31:28.845Z,89.80
2018-02-11T10:33:56.427Z,90.40
2018-02-11T10:36:24.019Z,90.80
2018-02-11T10:38:51.572Z,90.80
2018-02-11T10:41:19.927Z,90.80
2018-02-11T10:43:47.510Z,90.50
2018-02-11T10:46:15.141Z,90.80
2018-02-11T10:48:42.686Z,90.30
2018-02-11T10:51:10.265Z,89.30
2018-02-11T10:53:37.849Z,88.20
2018-02-11T10:56:06.251Z,86.10
2018-02-11T10:58:33.822Z,85.90
2018-02-11T11:01:02.296Z,83.20
2018-02-11T11:03:29.896Z,83.10
2018-02-11T11:05:57.474Z,83.30
2018-02-11T11:08:25.109Z,84.20
2018-02-11T11:10:53.478Z,81.20
2018-02-11T11:13:21.829Z,80.90
2018-02-11T11:15:49.426Z,80.90
2018-02-11T11:18:18.005Z,79.00
2018-02-11T11:20:46.528Z,81.40
2018-02-11T11:23:14.083Z,81.40
2018-02-11T11:25:41.687Z,81.30
2018-02-11T11:28:09.232Z,79.80
2018-02-11T11:30:36.797Z,80.70
2018-02-11T11:33:04.562Z,80.70
2018-02-11T11:35:32.105Z,79.00
2018-02-11T11:37:59.685Z,78.60
2018-02-11T11:40:27.989Z,81.20
2018-02-11T11:42:55.532Z,78.60
2018-02-11T11:45:23.110Z,78.80
2018-02-11T11:47:50.684Z,79.00
2018-02-11T11:50:19.014Z,79.20
2018-02-11T11:52:46.567Z,79.10
2018-02-11T11:55:14.244Z,76.50
2018-02-11T11:57:41.851Z,76.30
2018-02-11T12:00:10.244Z,76.80
2018-02-11T12:02:38.611Z,75.70
2018-02-11T12:05:06.231Z,75.60
2018-02-11T12:07:35.773Z,76.20
2018-02-11T12:10:03.360Z,77.60
2018-02-11T12:12:31.773Z,75.60
2018-02-11T12:14:59.341Z,75.60
2018-02-11T12:17:28.000Z,75.20
2018-02-11T12:19:55.705Z,75.90
2018-02-11T12:22:23.284Z,75.30
2018-02-11T12:24:51.011Z,74.60
2018-02-11T12:27:18.586Z,75.60
2018-02-11T12:29:46.207Z,74.50
2018-02-11T12:32:14.563Z,74.90
2018-02-11T12:34:42.226Z,74.90
2018-02-11T12:37:09.804Z,73.10
2018-02-11T12:39:37.419Z,73.60
2018-02-11T12:42:05.060Z,73.50
2018-02-11T12:44:32.683Z,73.50
2018-02-11T12:47:00.267Z,72.50
2018-02-11T12:49:28.798Z,72.20
2018-02-11T12:51:57.343Z,72.20
2018-02-11T12:54:24.980Z,73.80
2018-02-11T12:56:52.594Z,74.20
2018-02-11T12:59:22.157Z,74.10
2018-02-11T13:01:49.774Z,73.90
2018-02-11T13:04:17.533Z,75.10
2018-02-11T13:06:45.168Z,75.20
2018-02-11T13:09:13.565Z,76.10
2018-02-11T13:11:41.170Z,76.00
2018-02-11T13:14:08.818Z,78.70
2018-02-11T13:16:36.574Z,80.30
2018-02-11T13:19:04.211Z,80.80
2018-02-11T13:21:31.818Z,80.10
2018-02-11T13:23:59.409Z,77.90
2018-02-11T13:26:27.751Z,79.00
2018-02-11T13:28:55.364Z,78.70
2018-02-11T13:31:24.758Z,78.40
2018-02-11T13:33:52.370Z,78.50
2018-02-11T13:36:20.010Z,77.10
2018-02-11T13:38:47.612Z,77.10
2018-02-11T13:41:15.178Z,77.00
2018-02-11T13:43:42.771Z,76.10
2018-02-11T13:46:10.375Z,75.80
2018-02-11T13:48:39.918Z,74.80
2018-02-11T13:51:07.569Z,73.30
2018-02-11T13:53:35.148Z,73.20
2018-02-11T13:56:02.823Z,72.80
2018-02-11T13:58:30.414Z,74.00
2018-02-11T14:00:58.114Z,74.40
2018-02-11T14:03:25.694Z,75.00
2018-02-11T14:05:53.376Z,73.80
2018-02-11T14:08:22.144Z,73.00
2018-02-11T14:10:49.702Z,73.20
2018-02-11T14:13:17.299Z,72.20
2018-02-11T14:15:45.640Z,71.10
2018-02-11T14:18:13.256Z,71.10
2018-02-11T14:20:41.586Z,71.70
2018-02-11T14:23:09.195Z,71.70
2018-02-11T14:25:44.416Z,72.50
2018-02-11T14:28:12.009Z,71.60
2018-02-11T14:30:40.350Z,72.50
2018-02-11T14:33:07.897Z,72.50
2018-02-11T14:35:35.500Z,73.30
2018-02-11T14:38:03.837Z,73.10
2018-02-11T14:40:31.427Z,73.00
2018-02-11T14:42:58.988Z,73.70
2018-02-11T14:45:26.547Z,74.70
2018-02-11T14:47:54.096Z,76.00
2018-02-11T14:50:21.648Z,74.10
2018-02-11T14:52:49.311Z,75.30
2018-02-11T14:55:17.708Z,76.10
2018-02-11T14:57:45.266Z,76.00
2018-02-11T15:00:12.842Z,76.50
2018-02-11T15:02:40.408Z,77.90
2018-02-11T15:05:08.001Z,77.90
2018-02-11T15:07:36.329Z,77.90
2018-02-11T15:10:04.018Z,77.90
2018-02-11T15:12:31.754Z,78.40
2018-02-11T15:14:59.549Z,79.00
2018-02-11T15:17:27.133Z,79.40
2018-02-11T15:19:54.693Z,79.90
2018-02-11T15:22:22.265Z,80.30
2018-02-11T15:24:49.842Z,82.60
2018-02-11T15:27:17.549Z,83.50
2018-02-11T15:29:45.687Z,85.50
2018-02-11T15:32:14.205Z,88.90
2018-02-11T15:34:41.777Z,88.80
2018-02-11T15:37:09.337Z,88.70
2018-02-11T15:39:36.986Z,88.50
2018-02-11T15:42:04.539Z,87.50
2018-02-11T15:44:32.135Z,88.50
2018-02-11T15:46:59.689Z,89.50
2018-02-11T15:49:27.263Z,89.50
2018-02-11T15:51:54.841Z,88.80
2018-02-11T15:54:22.412Z,88.90
2018-02-11T15:56:49.973Z,89.90
2018-02-11T15:59:18.285Z,90.00
2018-02-11T16:01:45.844Z,90.00
2018-02-11T16:04:13.461Z,90.10
2018-02-11T16:06:41.052Z,89.90
2018-02-11T16:09:09.386Z,90.10
2018-02-11T16:11:36.974Z,90.10
2018-02-11T16:14:04.519Z,90.00
2018-02-11T16:16:32.110Z,90.10
2018-02-11T16:18:59.681Z,90.30
2018-02-11T16:21:28.021Z,90.20
2018-02-11T16:23:55.691Z,90.20
2018-02-11T16:26:23.251Z,90.00
2018-02-11T16:28:50.836Z,90.00
2018-02-11T16:31:18.391Z,90.20
2018-02-11T16:33:45.950Z,90.30
2018-02-11T16:36:13.517Z,90.50
2018-02-11T16:38:41.074Z,90.70
2018-02-11T16:41:08.715Z,91.20
2018-02-11T16:43:36.286Z,90.90
2018-02-11T16:46:04.058Z,90.90
2018-02-11T16:48:31.666Z,90.80
2018-02-11T16:50:59.294Z,91.00
2018-02-11T16:53:26.913Z,91.30
2018-02-11T16:55:54.503Z,91.50
2018-02-11T16:58:22.108Z,91.80
2018-02-11T17:00:49.726Z,92.00
2018-02-11T17:03:17.395Z,92.10
2018-02-11T17:05:45.040Z,92.10
2018-02-11T17:08:12.629Z,92.00
2018-02-11T17:10:40.226Z,91.80
2018-02-11T17:13:07.922Z,91.60
2018-02-11T17:15:35.533Z,91.40
2018-02-11T17:18:03.891Z,91.50
2018-02-11T17:20:31.450Z,91.20
2018-02-11T17:22:59.178Z,91.30
2018-02-11T17:25:26.754Z,91.30
2018-02-11T17:27:54.361Z,91.10
2018-02-11T17:30:22.734Z,90.90
2018-02-11T17:32:50.341Z,90.90
2018-02-11T17:35:17.976Z,90.90
2018-02-11T17:37:46.323Z,89.80
2018-02-11T17:40:13.906Z,89.80
2018-02-11T17:42:41.485Z,89.60
2018-02-11T17:45:09.815Z,89.60
2018-02-11T17:47:37.436Z,89.60
2018-02-11T17:50:05.762Z,89.60
2018-02-11T17:52:33.327Z,89.60
2018-02-11T17:55:00.950Z,90.00
2018-02-11T17:57:28.541Z,89.60
2018-02-11T17:59:56.292Z,89.60
2018-02-11T18:02:23.866Z,90.10
2018-02-11T18:04:51.460Z,89.20
2018-02-11T18:07:19.001Z,84.80
2018-02-11T18:09:46.593Z,86.30
2018-02-11T18:12:14.147Z,85.70
2018-02-11T18:14:41.762Z,84.60
2018-02-11T18:17:09.321Z,86.40
2018-02-11T18:19:36.904Z,86.90
2018-02-11T18:22:04.489Z,86.90
2018-02-11T18:24:32.067Z,87.80
2018-02-11T18:27:00.426Z,88.40
2018-02-11T18:29:28.786Z,90.00
2018-02-11T18:31:56.406Z,89.20
2018-02-11T18:34:24.081Z,90.10
2018-02-11T18:36:51.646Z,90.30
2018-02-11T18:39:19.316Z,90.50
2018-02-11T18:41:46.906Z,90.80
2018-02-11T18:44:14.484Z,90.90
2018-02-11T18:46:42.142Z,90.90
2018-02-11T18:49:09.764Z,91.00
2018-02-11T18:51:38.557Z,91.00
2018-02-11T18:54:06.162Z,90.90
2018-02-11T18:56:33.780Z,90.80
2018-02-11T18:59:01.426Z,90.60
2018-02-11T19:01:29.006Z,90.50
2018-02-11T19:03:56.585Z,90.40
2018-02-11T19:06:24.145Z,90.30
2018-02-11T19:08:52.588Z,90.50
2018-02-11T19:11:20.318Z,90.50
2018-02-11T19:13:48.052Z,90.40
2018-02-11T19:16:15.714Z,89.90
2018-02-11T19:18:43.291Z,89.80
2018-02-11T19:21:10.890Z,90.00
2018-02-11T19:23:40.273Z,90.00
2018-02-11T19:26:08.608Z,90.10
2018-02-11T19:28:36.190Z,90.10
2018-02-11T19:31:03.805Z,90.30
2018-02-11T19:33:32.234Z,90.50
2018-02-11T19:35:59.988Z,90.50
2018-02-11T19:38:27.569Z,90.50
2018-02-11T19:40:55.228Z,90.40
2018-02-11T19:43:22.860Z,90.20
2018-02-11T19:45:50.467Z,89.50
2018-02-11T19:48:18.812Z,87.60
2018-02-11T19:50:46.375Z,88.10
2018-02-11T19:53:14.070Z,87.50
2018-02-11T19:55:41.698Z,88.20
2018-02-11T19:58:09.286Z,89.00
2018-02-11T20:00:36.925Z,89.30
2018-02-11T20:03:04.489Z,89.70
2018-02-11T20:05:32.061Z,90.00
2018-02-11T20:07:59.640Z,90.20
2018-02-11T20:10:27.330Z,90.20
2018-02-11T20:12:55.866Z,90.30
2018-02-11T20:15:23.441Z,90.30
2018-02-11T20:17:51.053Z,90.50
2018-02-11T20:20:18.921Z,90.40
2018-02-11T20:22:47.265Z,90.40
2018-02-11T20:25:14.889Z,90.40
2018-02-11T20:27:42.478Z,90.50
2018-02-11T20:30:10.066Z,90.40
2018-02-11T20:32:38.595Z,90.40
2018-02-11T20:35:06.265Z,90.40
2018-02-11T20:37:34.041Z,90.50
2018-02-11T20:40:01.674Z,90.40
2018-02-11T20:42:29.278Z,90.50
2018-02-11T20:44:58.953Z,90.60
2018-02-11T20:47:26.558Z,90.60
2018-02-11T20:49:54.691Z,90.60
2018-02-11T20:52:23.292Z,90.70
2018-02-11T20:54:50.886Z,90.70
2018-02-11T20:57:18.626Z,90.80
2018-02-11T20:59:46.240Z,90.80
2018-02-11T21:02:14.579Z,90.90
2018-02-11T21:04:42.124Z,90.80
2018-02-11T21:07:09.717Z,90.60
2018-02-11T21:09:37.287Z,90.60
2018-02-11T21:12:04.879Z,90.60
2018-02-11T21:14:32.486Z,90.90
2018-02-11T21:17:00.086Z,90.60
2018-02-11T21:19:27.797Z,90.70
2018-02-11T21:21:55.369Z,90.80
2018-02-11T21:24:22.950Z,90.90
2018-02-11T21:26:50.676Z,90.90
2018-02-11T21:29:18.264Z,91.00
2018-02-11T21:31:45.830Z,91.10
2018-02-11T21:34:13.406Z,91.30
2018-02-11T21:36:41.898Z,91.40
2018-02-11T21:39:10.257Z,91.50
2018-02-11T21:41:37.836Z,91.50
2018-02-11T21:44:06.161Z,91.10
2018-02-11T21:46:33.758Z,91.10
2018-02-11T21:49:01.406Z,91.10
2018-02-11T21:51:28.984Z,90.80
2018-02-11T21:53:56.687Z,90.60
2018-02-11T21:56:25.211Z,90.50
2018-02-11T21:58:52.787Z,90.20
2018-02-11T22:01:20.366Z,90.00
2018-02-11T22:03:48.737Z,90.10
2018-02-11T22:06:16.291Z,90.10
2018-02-11T22:08:43.855Z,90.10
2018-02-11T22:11:11.398Z,89.50
2018-02-11T22:13:38.978Z,89.80
2018-02-11T22:16:06.542Z,89.30
2018-02-11T22:18:34.098Z,89.50
2018-02-11T22:21:01.710Z,89.50
2018-02-11T22:23:29.414Z,89.00
2018-02-11T22:25:56.987Z,89.10
2018-02-11T22:28:24.551Z,89.50
2018-02-11T22:30:52.103Z,90.00
2018-02-11T22:33:19.665Z,90.60
2018-02-11T22:35:47.283Z,90.40
2018-02-11T22:38:14.864Z,90.30
2018-02-11T22:40:42.510Z,90.30
2018-02-11T22:43:10.090Z,90.40
2018-02-11T22:45:37.661Z,90.70
2018-02-11T22:48:05.261Z,90.70
2018-02-11T22:50:33.605Z,90.30
2018-02-11T22:53:01.172Z,90.20
2018-02-11T22:55:28.759Z,89.60
2018-02-11T22:57:56.307Z,89.30
2018-02-11T23:00:23.893Z,89.60
2018-02-11T23:02:52.211Z,89.40
2018-02-11T23:05:19.917Z,89.40
2018-02-11T23:07:47.506Z,89.80
2018-02-11T23:10:15.144Z,89.60
2018-02-11T23:12:43.494Z,89.10
2018-02-11T23:15:11.070Z,89.10
2018-02-11T23:17:38.637Z,88.50
2018-02-11T23:20:06.209Z,88.50
2018-02-11T23:22:33.783Z,88.50
2018-02-11T23:25:02.099Z,88.90
2018-02-11T23:27:29.681Z,88.90
2018-02-11T23:29:57.277Z,88.80
2018-02-11T23:32:25.021Z,89.10
2018-02-11T23:34:52.601Z,89.60
2018-02-11T23:37:20.993Z,89.80
2018-02-11T23:39:48.609Z,89.80
2018-02-11T23:42:16.217Z,89.60
2018-02-11T23:44:43.852Z,89.10
2018-02-11T23:47:11.433Z,88.70
2018-02-11T23:49:39.083Z,88.30
2018-02-11T23:52:06.755Z,89.00
2018-02-11T23:54:35.284Z,88.00
2018-02-11T23:57:02.848Z,88.00
2018-02-11T23:59:30.409Z,88.30
